EDNY

Friedrichshafen Airport

Friedrichshafen, Germany
METAR EDNY 140420Z AUTO 05004KT 010V080 0900 R24/1200N // VV002 03/03 Q1031
Observed Flight Rules
Nov-14 @ 04:20 UTC (29 minutes ago) Instrument Flight Rules
Wind Visibility Clouds
50° at 4 knots 901 meters
  • Vertical visibility at 200' AGL
Temperatures Readings
Current 3°C / 37°F
Dewpoint 3°C / 37°F
Humidity 100%
Altimeter 30.44" Hg
Pressure 1031 hPa
Elevation 424
METAR EDNY 140420Z AUTO 05004KT 010V080 0900 R24/1200N // VV002 03/03 Q1031
Observed Flight Rules
Nov-14 @ 04:20 UTC
(29 minutes ago)
LIFR
Wind Visibility
50° at 4 knots 901 meters
Clouds
  • Vertical visibility at 200' AGL
Temperature Dewpoint
3°C / 37°F 3°C / 37°F
Humidity Altimeter Pressure
100% 30.44" Hg 1031 hPa